createdAt,value
2019-03-30T00:00:10.869Z,102112.86
2019-03-30T00:02:40.289Z,102115.61
2019-03-30T00:05:09.727Z,102111.69
2019-03-30T00:07:39.715Z,102106.22
2019-03-30T00:10:09.252Z,102105.02
2019-03-30T00:12:38.695Z,102112.13
2019-03-30T00:15:08.107Z,102112.13
2019-03-30T00:17:37.543Z,102108.44
2019-03-30T00:20:06.952Z,102111.20
2019-03-30T00:22:36.497Z,102112.13
2019-03-30T00:25:06.508Z,102110.16
2019-03-30T00:27:35.961Z,102101.55
2019-03-30T00:30:07.004Z,102107.38
2019-03-30T00:32:36.328Z,102100.66
2019-03-30T00:35:06.694Z,102105.91
2019-03-30T00:37:36.018Z,102110.25
2019-03-30T00:40:07.206Z,102104.22
2019-03-30T00:42:52.831Z,102105.47
2019-03-30T00:45:24.512Z,102107.81
2019-03-30T00:48:09.960Z,102104.94
2019-03-30T00:50:41.492Z,102108.09
2019-03-30T00:53:33.016Z,102104.64
2019-03-30T00:56:04.697Z,102106.02
2019-03-30T00:58:50.060Z,102101.63
2019-03-30T01:01:21.346Z,102097.19
2019-03-30T01:03:52.558Z,102095.19
2019-03-30T01:06:23.768Z,102089.70
2019-03-30T01:09:10.293Z,102089.70
2019-03-30T01:11:41.559Z,102091.98
2019-03-30T01:14:13.089Z,102085.99
2019-03-30T01:16:58.856Z,102083.46
2019-03-30T01:19:30.069Z,102084.56
2019-03-30T01:22:01.253Z,102085.48
2019-03-30T01:24:32.465Z,102080.30
2019-03-30T01:27:18.310Z,102072.77
2019-03-30T01:29:49.522Z,102072.58
2019-03-30T01:32:20.739Z,102067.93
2019-03-30T01:34:51.944Z,102067.93
2019-03-30T01:37:22.828Z,102071.34
2019-03-30T01:40:08.947Z,102062.20
2019-03-30T01:42:40.160Z,102063.41
2019-03-30T01:45:11.345Z,102058.82
2019-03-30T01:47:42.556Z,102061.40
2019-03-30T01:50:17.729Z,102055.48
2019-03-30T01:52:47.601Z,102056.38
2019-03-30T01:55:33.243Z,102052.17
2019-03-30T01:58:04.469Z,102058.77
2019-03-30T02:00:35.682Z,102053.30
2019-03-30T02:03:06.964Z,102046.41
2019-03-30T02:05:52.712Z,102052.44
2019-03-30T02:08:23.935Z,102050.30
2019-03-30T02:10:55.117Z,102048.61
2019-03-30T02:13:26.514Z,102049.52
2019-03-30T02:16:18.195Z,102042.89
2019-03-30T02:18:49.409Z,102050.30
2019-03-30T02:21:18.832Z,102048.23
2019-03-30T02:23:49.588Z,102048.77
2019-03-30T02:26:19.093Z,102050.11
2019-03-30T02:28:48.539Z,102041.96
2019-03-30T02:31:17.953Z,102042.86
2019-03-30T02:33:47.399Z,102048.05
2019-03-30T02:36:16.812Z,102045.78
2019-03-30T02:38:46.750Z,102041.52
2019-03-30T02:41:16.184Z,102040.81
2019-03-30T02:43:46.522Z,102043.50
2019-03-30T02:46:15.957Z,102045.84
2019-03-30T02:48:45.371Z,102045.00
2019-03-30T02:51:14.818Z,102044.27
2019-03-30T02:53:44.227Z,102036.92
2019-03-30T02:56:14.477Z,102032.14
2019-03-30T02:58:44.790Z,102031.02
2019-03-30T03:01:14.584Z,102029.78
2019-03-30T03:03:44.548Z,102034.61
2019-03-30T03:06:14.488Z,102030.73
2019-03-30T03:08:43.894Z,102030.25
2019-03-30T03:11:13.638Z,102031.55
2019-03-30T03:13:43.058Z,102030.26
2019-03-30T03:16:12.791Z,102023.88
2019-03-30T03:18:42.412Z,102027.84
2019-03-30T03:21:11.853Z,102028.75
2019-03-30T03:23:41.640Z,102026.64
2019-03-30T03:26:11.688Z,102024.48
2019-03-30T03:28:41.103Z,102030.09
2019-03-30T03:31:10.697Z,102024.52
2019-03-30T03:33:40.175Z,102032.77
2019-03-30T03:36:09.664Z,102027.59
2019-03-30T03:38:39.087Z,102038.06
2019-03-30T03:41:08.608Z,102029.95
2019-03-30T03:43:38.027Z,102027.31
2019-03-30T03:46:07.476Z,102026.46
2019-03-30T03:48:36.892Z,102028.18
2019-03-30T03:51:24.493Z,102020.94
2019-03-30T03:53:37.450Z,102022.70
2019-03-30T03:56:06.899Z,102019.72
2019-03-30T03:58:36.307Z,102025.80
2019-03-30T04:01:05.760Z,102015.53
2019-03-30T04:03:35.242Z,102016.55
2019-03-30T04:06:05.717Z,102014.43
2019-03-30T04:08:35.371Z,102014.00
2019-03-30T04:11:04.894Z,102007.92
2019-03-30T04:13:34.299Z,102008.36
2019-03-30T04:16:03.735Z,102013.92
2019-03-30T04:18:33.152Z,102010.08
2019-03-30T04:21:02.683Z,101999.73
2019-03-30T04:23:32.076Z,102004.48
2019-03-30T04:26:01.527Z,102004.09
2019-03-30T04:28:31.039Z,102001.47
2019-03-30T04:31:00.496Z,102004.16
2019-03-30T04:33:29.929Z,101996.80
2019-03-30T04:35:59.347Z,101992.13
2019-03-30T04:38:28.760Z,101986.17
2019-03-30T04:40:58.204Z,101983.98
2019-03-30T04:43:27.716Z,101991.31
2019-03-30T04:45:57.159Z,101987.90
2019-03-30T04:48:29.474Z,101983.20
2019-03-30T04:50:57.749Z,101984.91
2019-03-30T04:53:27.193Z,101985.31
2019-03-30T04:55:56.606Z,101983.98
2019-03-30T04:58:26.048Z,101977.02
2019-03-30T05:00:55.496Z,101978.19
2019-03-30T05:03:24.944Z,101981.67
2019-03-30T05:05:54.365Z,101974.34
2019-03-30T05:08:23.808Z,101970.16
2019-03-30T05:10:53.217Z,101961.53
2019-03-30T05:13:22.755Z,101965.37
2019-03-30T05:15:52.267Z,101960.55
2019-03-30T05:18:21.824Z,101957.93
2019-03-30T05:20:51.234Z,101952.72
2019-03-30T05:23:20.669Z,101957.81
2019-03-30T05:25:50.185Z,101956.86
2019-03-30T05:28:19.631Z,101961.12
2019-03-30T05:30:49.040Z,101964.79
2019-03-30T05:33:18.483Z,101963.41
2019-03-30T05:35:47.897Z,101962.46
2019-03-30T05:38:17.336Z,101967.64
2019-03-30T05:40:46.749Z,101968.50
2019-03-30T05:43:16.552Z,101966.15
2019-03-30T05:45:45.967Z,101962.13
2019-03-30T05:48:15.412Z,101970.99
2019-03-30T05:50:45.228Z,101958.75
2019-03-30T05:53:14.687Z,101957.31
2019-03-30T05:55:44.104Z,101958.92
2019-03-30T05:58:13.641Z,101956.99
2019-03-30T06:00:43.127Z,101957.58
2019-03-30T06:03:12.672Z,101953.41
2019-03-30T06:05:42.471Z,101962.37
2019-03-30T06:08:13.856Z,101952.67
2019-03-30T06:10:43.278Z,101957.57
2019-03-30T06:13:14.712Z,101957.01
2019-03-30T06:15:44.423Z,101968.86
2019-03-30T06:18:13.933Z,101970.45
2019-03-30T06:20:43.384Z,101964.28
2019-03-30T06:23:12.849Z,101962.31
2019-03-30T06:25:42.735Z,101958.89
2019-03-30T06:28:12.187Z,101961.72
2019-03-30T06:30:41.594Z,101962.46
2019-03-30T06:33:11.632Z,101962.20
2019-03-30T06:35:41.045Z,101955.50
2019-03-30T06:38:10.485Z,101953.62
2019-03-30T06:40:39.908Z,101952.13
2019-03-30T06:43:09.349Z,101953.55
2019-03-30T06:45:38.762Z,101954.13
2019-03-30T06:48:08.209Z,101950.62
2019-03-30T06:50:37.627Z,101951.19
2019-03-30T06:53:07.069Z,101944.03
2019-03-30T06:55:36.522Z,101940.58
2019-03-30T06:58:05.935Z,101943.58
2019-03-30T07:00:35.446Z,101945.22
2019-03-30T07:03:05.514Z,101938.69
2019-03-30T07:05:42.519Z,101938.70
2019-03-30T07:08:12.572Z,101936.75
2019-03-30T07:10:43.668Z,101932.97
2019-03-30T07:13:14.066Z,101928.77
2019-03-30T07:15:47.304Z,101925.21
2019-03-30T07:18:16.852Z,101925.46
2019-03-30T07:20:46.293Z,101927.42
2019-03-30T07:23:17.268Z,101934.97
2019-03-30T07:25:46.707Z,101924.77
2019-03-30T07:28:16.121Z,101924.19
2019-03-30T07:30:45.560Z,101932.17
2019-03-30T07:33:15.257Z,101927.18
2019-03-30T07:35:44.704Z,101929.59
2019-03-30T07:38:14.129Z,101924.71
2019-03-30T07:40:43.653Z,101932.36
2019-03-30T07:43:13.075Z,101930.95
2019-03-30T07:45:42.518Z,101923.06
2019-03-30T07:48:12.459Z,101925.02
2019-03-30T07:50:41.915Z,101924.75
2019-03-30T07:53:25.246Z,101922.16
2019-03-30T07:55:43.708Z,101926.08
2019-03-30T07:58:13.135Z,101925.95
2019-03-30T08:00:42.584Z,101921.29
2019-03-30T08:03:12.491Z,101919.67
2019-03-30T08:05:41.944Z,101913.17
2019-03-30T08:08:11.364Z,101916.66
2019-03-30T08:10:40.832Z,101915.97
2019-03-30T08:13:10.245Z,101914.91
2019-03-30T08:15:39.985Z,101899.16
2019-03-30T08:18:09.355Z,101904.58
2019-03-30T08:20:38.836Z,101899.19
2019-03-30T08:23:08.260Z,101899.66
2019-03-30T08:25:37.747Z,101897.72
2019-03-30T08:28:07.148Z,101893.33
2019-03-30T08:30:36.609Z,101887.13
2019-03-30T08:33:06.026Z,101882.52
2019-03-30T08:35:35.481Z,101884.84
2019-03-30T08:38:04.905Z,101881.02
2019-03-30T08:40:34.509Z,101883.02
2019-03-30T08:43:03.928Z,101881.70
2019-03-30T08:45:33.377Z,101878.05
2019-03-30T08:48:02.867Z,101876.20
2019-03-30T08:50:32.325Z,101877.53
2019-03-30T08:53:01.749Z,101876.29
2019-03-30T08:55:31.201Z,101874.79
2019-03-30T08:58:00.823Z,101872.45
2019-03-30T09:00:42.924Z,101864.55
2019-03-30T09:03:12.932Z,101866.70
2019-03-30T09:05:42.996Z,101864.89
2019-03-30T09:08:12.422Z,101866.73
2019-03-30T09:10:41.860Z,101861.28
2019-03-30T09:13:11.276Z,101856.81
2019-03-30T09:15:41.448Z,101857.54
2019-03-30T09:18:10.865Z,101855.88
2019-03-30T09:20:40.313Z,101846.05
2019-03-30T09:23:09.767Z,101847.93
2019-03-30T09:25:39.205Z,101845.37
2019-03-30T09:28:08.633Z,101842.23
2019-03-30T09:30:38.089Z,101840.80
2019-03-30T09:33:07.505Z,101829.93
2019-03-30T09:35:36.963Z,101826.28
2019-03-30T09:38:06.412Z,101825.12
2019-03-30T09:40:35.909Z,101826.05
2019-03-30T09:43:05.357Z,101825.79
2019-03-30T09:45:34.776Z,101822.53
2019-03-30T09:48:04.233Z,101822.55
2019-03-30T09:50:33.653Z,101816.91
2019-03-30T09:53:03.098Z,101813.19
2019-03-30T09:55:32.518Z,101811.30
2019-03-30T09:58:01.965Z,101800.13
2019-03-30T10:00:31.384Z,101800.28
2019-03-30T10:03:00.825Z,101795.41
2019-03-30T10:05:30.277Z,101788.64
2019-03-30T10:07:59.724Z,101781.84
2019-03-30T10:10:29.147Z,101787.84
2019-03-30T10:12:58.602Z,101781.34
2019-03-30T10:15:28.017Z,101770.88
2019-03-30T10:17:57.470Z,101772.03
2019-03-30T10:20:26.895Z,101770.66
2019-03-30T10:22:56.340Z,101757.09
2019-03-30T10:25:25.785Z,101752.00
2019-03-30T10:27:55.232Z,101753.24
2019-03-30T10:30:24.650Z,101752.12
2019-03-30T10:32:54.111Z,101757.51
2019-03-30T10:35:23.540Z,101754.79
2019-03-30T10:37:53.009Z,101744.25
2019-03-30T10:40:22.433Z,101741.73
2019-03-30T10:42:51.886Z,101738.83
2019-03-30T10:45:21.309Z,101721.54
2019-03-30T10:47:50.803Z,101726.87
2019-03-30T10:50:20.508Z,101728.66
2019-03-30T10:52:49.953Z,101721.33
2019-03-30T10:55:19.368Z,101721.31
2019-03-30T10:57:48.930Z,101710.58
2019-03-30T11:00:33.525Z,101705.80
2019-03-30T11:03:02.981Z,101704.20
2019-03-30T11:05:32.599Z,101694.28
2019-03-30T11:08:02.061Z,101696.50
2019-03-30T11:10:31.479Z,101683.55
2019-03-30T11:13:00.918Z,101693.55
2019-03-30T11:15:33.782Z,101684.86
2019-03-30T11:18:01.582Z,101675.41
2019-03-30T11:20:31.001Z,101668.08
2019-03-30T11:23:00.461Z,101673.92
2019-03-30T11:25:29.871Z,101666.02
2019-03-30T11:27:59.317Z,101666.06
2019-03-30T11:30:28.736Z,101665.32
2019-03-30T11:32:58.186Z,101666.25
2019-03-30T11:35:27.597Z,101660.09
2019-03-30T11:37:57.116Z,101665.26
2019-03-30T11:40:26.538Z,101652.55
2019-03-30T11:42:55.983Z,101652.84
2019-03-30T11:45:25.401Z,101646.24
2019-03-30T11:47:54.856Z,101660.97
2019-03-30T11:50:24.711Z,101649.44
2019-03-30T11:52:54.177Z,101648.91
2019-03-30T11:55:25.245Z,101645.17
2019-03-30T11:57:54.703Z,101641.35
2019-03-30T12:00:24.123Z,101640.18
2019-03-30T12:02:53.592Z,101630.45
2019-03-30T12:05:23.039Z,101617.33
2019-03-30T12:07:52.464Z,101629.61
2019-03-30T12:10:21.916Z,101613.83
2019-03-30T12:12:51.341Z,101612.30
2019-03-30T12:15:20.781Z,101607.36
2019-03-30T12:17:50.202Z,101593.25
2019-03-30T12:20:19.661Z,101588.69
2019-03-30T12:22:49.486Z,101579.96
2019-03-30T12:25:18.962Z,101580.47
2019-03-30T12:27:48.353Z,101576.13
2019-03-30T12:30:18.289Z,101571.74
2019-03-30T12:32:47.711Z,101563.31
2019-03-30T12:35:17.476Z,101562.76
2019-03-30T12:37:47.399Z,101559.66
2019-03-30T12:40:16.862Z,101540.66
2019-03-30T12:42:46.280Z,101540.66
2019-03-30T12:45:16.100Z,101550.05
2019-03-30T12:47:45.648Z,101550.05
2019-03-30T12:50:15.093Z,101540.82
2019-03-30T12:52:44.524Z,101545.93
2019-03-30T12:55:14.506Z,101535.83
2019-03-30T12:57:43.921Z,101530.23
2019-03-30T13:00:13.373Z,101518.85
2019-03-30T13:02:42.800Z,101548.36
2019-03-30T13:05:15.217Z,101494.91
2019-03-30T13:07:44.641Z,101494.91
2019-03-30T13:10:14.494Z,101512.78
2019-03-30T13:12:43.909Z,101507.84
2019-03-30T13:15:13.361Z,101510.80
2019-03-30T13:17:42.781Z,101509.45
2019-03-30T13:20:12.232Z,101504.95
2019-03-30T13:22:41.653Z,101498.37
2019-03-30T13:25:11.101Z,101513.03
2019-03-30T13:27:40.621Z,101491.86
2019-03-30T13:30:10.134Z,101494.48
2019-03-30T13:32:39.601Z,101485.30
2019-03-30T13:35:09.006Z,101477.31
2019-03-30T13:37:38.425Z,101480.18
2019-03-30T13:40:07.946Z,101481.56
2019-03-30T13:42:37.367Z,101486.02
2019-03-30T13:45:07.176Z,101475.83
2019-03-30T13:47:36.600Z,101477.42
2019-03-30T13:50:06.341Z,101469.09
2019-03-30T13:52:35.763Z,101469.38
2019-03-30T13:55:06.077Z,101474.30
2019-03-30T13:57:35.497Z,101459.38
2019-03-30T14:00:08.049Z,101450.31
2019-03-30T14:02:37.493Z,101458.98
2019-03-30T14:05:06.952Z,101462.42
2019-03-30T14:07:36.374Z,101450.53
2019-03-30T14:10:06.969Z,101451.39
2019-03-30T14:12:36.383Z,101442.17
2019-03-30T14:15:09.202Z,101443.89
2019-03-30T14:17:36.958Z,101443.20
2019-03-30T14:20:08.033Z,101443.13
2019-03-30T14:22:37.825Z,101434.63
2019-03-30T14:25:07.440Z,101422.72
2019-03-30T14:27:36.856Z,101428.95
2019-03-30T14:30:09.542Z,101431.74
2019-03-30T14:32:38.994Z,101421.69
2019-03-30T14:35:08.415Z,101415.73
2019-03-30T14:37:37.863Z,101416.72
2019-03-30T14:40:07.968Z,101409.80
2019-03-30T14:42:37.427Z,101414.09
2019-03-30T14:45:07.480Z,101410.94
2019-03-30T14:47:37.040Z,101400.70
2019-03-30T14:50:08.006Z,101397.07
2019-03-30T14:52:37.451Z,101392.31
2019-03-30T14:55:08.498Z,101387.86
2019-03-30T14:57:37.950Z,101388.69
2019-03-30T15:00:09.814Z,101390.28
2019-03-30T15:02:39.283Z,101379.19
2019-03-30T15:05:08.700Z,101372.45
2019-03-30T15:07:38.155Z,101369.90
2019-03-30T15:10:08.317Z,101369.60
2019-03-30T15:12:38.301Z,101364.66
2019-03-30T15:15:08.965Z,101358.59
2019-03-30T15:17:40.652Z,101354.65
2019-03-30T15:20:10.325Z,101352.20
2019-03-30T15:22:40.002Z,101352.56
2019-03-30T15:25:09.760Z,101351.33
2019-03-30T15:27:39.201Z,101357.77
2019-03-30T15:30:08.625Z,101345.21
2019-03-30T15:32:38.079Z,101341.55
2019-03-30T15:35:07.505Z,101343.19
2019-03-30T15:37:36.954Z,101337.59
2019-03-30T15:40:06.751Z,101327.30
2019-03-30T15:42:39.718Z,101325.83
2019-03-30T15:45:10.638Z,101321.89
2019-03-30T15:47:40.088Z,101320.31
2019-03-30T15:50:09.511Z,101319.09
2019-03-30T15:52:38.965Z,101316.92
2019-03-30T15:55:08.383Z,101312.89
2019-03-30T15:57:37.827Z,101312.63
2019-03-30T16:00:14.510Z,101307.78
2019-03-30T16:02:44.341Z,101317.94
2019-03-30T16:05:15.778Z,101304.89
2019-03-30T16:07:44.901Z,101305.52
2019-03-30T16:10:14.325Z,101298.05
2019-03-30T16:12:43.768Z,101301.52
2019-03-30T16:15:13.196Z,101295.18
2019-03-30T16:17:42.750Z,101292.69
2019-03-30T16:20:12.165Z,101286.20
2019-03-30T16:22:41.622Z,101282.02
2019-03-30T16:25:11.037Z,101282.16
2019-03-30T16:27:40.485Z,101284.21
2019-03-30T16:30:09.905Z,101285.45
2019-03-30T16:32:39.366Z,101279.08
2019-03-30T16:35:08.787Z,101278.49
2019-03-30T16:37:38.403Z,101266.25
2019-03-30T16:40:07.829Z,101267.94
2019-03-30T16:42:37.277Z,101264.11
2019-03-30T16:45:07.139Z,101264.11
2019-03-30T16:47:36.596Z,101262.08
2019-03-30T16:50:08.152Z,101258.14
2019-03-30T16:52:40.822Z,101245.30
2019-03-30T16:55:08.781Z,101253.14
2019-03-30T16:57:43.486Z,101243.31
2019-03-30T17:00:09.393Z,101239.23
2019-03-30T17:02:38.851Z,101238.66
2019-03-30T17:05:08.326Z,101235.56
2019-03-30T17:07:37.750Z,101244.66
2019-03-30T17:10:08.220Z,101239.52
2019-03-30T17:12:37.644Z,101235.91
2019-03-30T17:15:08.803Z,101240.36
2019-03-30T17:17:38.227Z,101238.68
2019-03-30T17:20:07.921Z,101234.58
2019-03-30T17:22:37.357Z,101236.22
2019-03-30T17:25:07.071Z,101242.42
2019-03-30T17:27:36.756Z,101241.75
2019-03-30T17:30:08.149Z,101243.02
2019-03-30T17:32:37.570Z,101242.45
2019-03-30T17:35:07.025Z,101240.59
2019-03-30T17:37:36.440Z,101240.14
2019-03-30T17:40:08.822Z,101235.91
2019-03-30T17:42:38.821Z,101229.08
2019-03-30T17:45:09.417Z,101239.03
2019-03-30T17:47:38.843Z,101236.45
2019-03-30T17:50:09.176Z,101237.94
2019-03-30T17:52:38.596Z,101239.72
2019-03-30T17:55:09.125Z,101236.84
2019-03-30T17:57:38.645Z,101238.59
2019-03-30T18:00:09.914Z,101242.25
2019-03-30T18:02:39.334Z,101244.23
2019-03-30T18:05:08.785Z,101242.73
2019-03-30T18:07:38.216Z,101246.89
2019-03-30T18:10:07.664Z,101242.82
2019-03-30T18:12:37.102Z,101250.98
2019-03-30T18:15:07.589Z,101251.60
2019-03-30T18:17:37.009Z,101258.55
2019-03-30T18:20:06.734Z,101259.89
2019-03-30T18:22:36.166Z,101255.86
2019-03-30T18:25:06.196Z,101250.79
2019-03-30T18:27:35.629Z,101252.31
2019-03-30T18:30:07.774Z,101247.82
2019-03-30T18:32:37.197Z,101254.16
2019-03-30T18:35:06.722Z,101255.20
2019-03-30T18:37:36.150Z,101249.83
2019-03-30T18:40:06.941Z,101251.98
2019-03-30T18:42:36.370Z,101254.97
2019-03-30T18:45:06.764Z,101257.36
2019-03-30T18:47:36.197Z,101262.01
2019-03-30T18:50:06.986Z,101259.56
2019-03-30T18:52:36.407Z,101256.52
2019-03-30T18:55:06.800Z,101258.11
2019-03-30T18:57:36.231Z,101257.05
2019-03-30T19:00:07.554Z,101257.89
2019-03-30T19:02:37.093Z,101251.40
2019-03-30T19:05:06.781Z,101261.55
2019-03-30T19:07:36.288Z,101253.11
2019-03-30T19:10:06.399Z,101258.69
2019-03-30T19:12:35.833Z,101261.25
2019-03-30T19:15:06.359Z,101256.48
2019-03-30T19:17:35.780Z,101255.80
2019-03-30T19:20:06.677Z,101258.00
2019-03-30T19:22:36.155Z,101256.86
2019-03-30T19:25:06.717Z,101251.93
2019-03-30T19:27:36.172Z,101253.90
2019-03-30T19:30:09.478Z,101260.44
2019-03-30T19:32:38.937Z,101256.45
2019-03-30T19:35:09.987Z,101256.38
2019-03-30T19:37:40.442Z,101263.80
2019-03-30T19:40:09.876Z,101258.34
2019-03-30T19:42:39.333Z,101267.02
2019-03-30T19:45:08.855Z,101267.63
2019-03-30T19:47:38.302Z,101264.82
2019-03-30T19:50:07.722Z,101260.06
2019-03-30T19:52:40.151Z,101257.07
2019-03-30T19:55:08.301Z,101261.70
2019-03-30T19:57:37.767Z,101261.07
2019-03-30T20:00:10.630Z,101258.80
2019-03-30T20:02:40.095Z,101263.23
2019-03-30T20:05:09.518Z,101263.69
2019-03-30T20:07:38.963Z,101267.84
2019-03-30T20:10:08.388Z,101265.69
2019-03-30T20:12:38.305Z,101264.98
2019-03-30T20:15:08.195Z,101268.59
2019-03-30T20:17:37.644Z,101270.11
2019-03-30T20:20:07.332Z,101264.59
2019-03-30T20:22:36.780Z,101264.08
2019-03-30T20:25:09.706Z,101259.38
2019-03-30T20:27:39.157Z,101261.47
2019-03-30T20:30:09.409Z,101260.16
2019-03-30T20:32:38.858Z,101254.54
2019-03-30T20:35:08.660Z,101252.17
2019-03-30T20:37:38.117Z,101251.76
2019-03-30T20:40:07.978Z,101252.51
2019-03-30T20:42:37.426Z,101249.95
2019-03-30T20:45:06.968Z,101247.27
2019-03-30T20:47:36.454Z,101249.02
2019-03-30T20:50:06.613Z,101243.61
2019-03-30T20:52:36.058Z,101244.66
2019-03-30T20:55:05.948Z,101240.48
2019-03-30T20:57:35.390Z,101240.17
2019-03-30T21:00:07.446Z,101245.25
2019-03-30T21:02:36.909Z,101237.94
2019-03-30T21:05:06.805Z,101230.66
2019-03-30T21:07:36.260Z,101230.31
2019-03-30T21:10:08.448Z,101235.16
2019-03-30T21:12:37.898Z,101230.22
2019-03-30T21:15:07.320Z,101232.70
2019-03-30T21:17:36.778Z,101235.38
2019-03-30T21:20:06.465Z,101227.97
2019-03-30T21:22:35.988Z,101226.03
2019-03-30T21:25:05.884Z,101227.97
2019-03-30T21:27:35.333Z,101229.67
2019-03-30T21:30:09.173Z,101226.67
2019-03-30T21:32:38.654Z,101227.88
2019-03-30T21:35:08.081Z,101228.91
2019-03-30T21:37:37.521Z,101230.48
2019-03-30T21:40:07.005Z,101233.23
2019-03-30T21:42:36.463Z,101230.48
2019-03-30T21:45:07.349Z,101230.97
2019-03-30T21:47:36.976Z,101233.89
2019-03-30T21:50:07.264Z,101234.55
2019-03-30T21:52:36.706Z,101228.62
2019-03-30T21:55:06.153Z,101223.63
2019-03-30T21:57:35.602Z,101229.86
2019-03-30T22:00:10.499Z,101224.92
2019-03-30T22:02:37.792Z,101227.25
2019-03-30T22:05:07.244Z,101222.70
2019-03-30T22:07:36.747Z,101218.73
2019-03-30T22:10:09.212Z,101217.16
2019-03-30T22:12:41.477Z,101216.33
2019-03-30T22:15:11.090Z,101217.48
2019-03-30T22:17:40.506Z,101216.58
2019-03-30T22:20:09.969Z,101213.98
2019-03-30T22:22:39.587Z,101209.80
2019-03-30T22:25:09.058Z,101209.23
2019-03-30T22:27:38.490Z,101213.63
2019-03-30T22:30:07.939Z,101210.78
2019-03-30T22:32:37.376Z,101211.16
2019-03-30T22:35:06.830Z,101206.73
2019-03-30T22:37:36.245Z,101208.72
2019-03-30T22:40:05.936Z,101207.55
2019-03-30T22:42:35.359Z,101200.84
2019-03-30T22:45:05.956Z,101202.59
2019-03-30T22:47:35.404Z,101198.36
2019-03-30T22:50:07.403Z,101199.98
2019-03-30T22:52:36.834Z,101197.31
2019-03-30T22:55:06.831Z,101200.27
2019-03-30T22:57:36.258Z,101196.69
2019-03-30T23:00:09.673Z,101197.06
2019-03-30T23:02:39.094Z,101209.37
2019-03-30T23:05:08.558Z,101200.39
2019-03-30T23:07:37.987Z,101200.11
2019-03-30T23:10:07.435Z,101200.11
2019-03-30T23:12:36.854Z,101196.73
2019-03-30T23:15:06.312Z,101191.12
2019-03-30T23:17:35.729Z,101194.75
2019-03-30T23:20:06.122Z,101194.98
2019-03-30T23:22:35.554Z,101196.20
2019-03-30T23:25:06.735Z,101201.06
2019-03-30T23:27:36.231Z,101192.49
2019-03-30T23:30:07.320Z,101194.43
2019-03-30T23:32:36.742Z,101194.92
2019-03-30T23:35:06.527Z,101197.27
2019-03-30T23:37:35.953Z,101188.66
2019-03-30T23:40:05.941Z,101198.39
2019-03-30T23:42:35.363Z,101186.30
2019-03-30T23:45:05.457Z,101184.73
2019-03-30T23:47:34.879Z,101186.60
2019-03-30T23:50:05.863Z,101182.48
2019-03-30T23:52:35.483Z,101177.93
2019-03-30T23:55:05.877Z,101177.63
2019-03-30T23:57:35.299Z,101179.23
